Time;durP1;ratioP1;P1;durP2;ratioP2;P2;SDS_P1;SDS_P2;PMS_P1;PMS_P2;Temp;Humidity;BMP_temperature;BMP_pressure;BME280_temperature;BME280_humidity;BME280_pressure;Samples;Min_cycle;Max_cycle;Signal;HPM_P1;HPM_P2
2022/01/19 00:01:53;;;;;;;61.20;23.40;;;0.40;99.90;;;;;;5008455;28;20494;-62
2022/01/19 00:04:21;;;;;;;50.58;22.05;;;0.30;99.90;;;;;;5021686;28;20065;-62
2022/01/19 00:06:49;;;;;;;53.42;21.80;;;0.30;99.90;;;;;;5031131;28;20049;-62
2022/01/19 00:09:17;;;;;;;48.65;21.10;;;0.30;99.90;;;;;;5031191;28;20401;-62
2022/01/19 00:11:44;;;;;;;55.50;23.30;;;0.30;99.90;;;;;;5031515;28;20064;-63
2022/01/19 00:14:12;;;;;;;52.97;22.48;;;0.30;99.90;;;;;;5031046;28;20065;-62
2022/01/19 00:16:40;;;;;;;50.40;21.13;;;0.30;99.90;;;;;;5018084;28;20382;-63
2022/01/19 00:19:07;;;;;;;60.78;22.98;;;0.30;99.90;;;;;;5025726;28;20041;-62
2022/01/19 00:21:35;;;;;;;59.55;23.00;;;0.20;99.90;;;;;;5031183;28;20057;-63
2022/01/19 00:24:03;;;;;;;48.78;19.63;;;0.20;99.90;;;;;;5013040;28;20057;-63
2022/01/19 00:26:35;;;;;;;61.95;21.40;;;0.20;99.90;;;;;;5031263;28;20056;-63
2022/01/19 00:29:04;;;;;;;51.83;21.10;;;0.20;99.90;;;;;;5031023;28;20520;-67
2022/01/19 00:31:33;;;;;;;52.58;21.08;;;0.20;99.90;;;;;;5021003;28;20057;-62
2022/01/19 00:34:00;;;;;;;56.75;22.90;;;0.20;99.90;;;;;;5020731;28;20042;-63
2022/01/19 00:36:29;;;;;;;61.70;21.10;;;0.20;99.90;;;;;;5029712;28;20060;-61
2022/01/19 00:38:57;;;;;;;61.63;21.48;;;0.10;99.90;;;;;;5030726;28;20050;-65
2022/01/19 00:41:24;;;;;;;50.97;20.73;;;0.10;99.90;;;;;;5031004;28;20507;-63
2022/01/19 00:43:52;;;;;;;50.88;21.33;;;0.20;99.90;;;;;;5030481;28;20050;-65
2022/01/19 00:46:20;;;;;;;61.17;23.55;;;0.10;99.90;;;;;;5022479;28;20045;-63
2022/01/19 00:48:47;;;;;;;48.83;20.90;;;0.10;99.90;;;;;;5021334;28;20498;-66
2022/01/19 00:51:15;;;;;;;50.72;20.38;;;0.00;99.90;;;;;;5030712;28;20050;-63
2022/01/19 00:53:42;;;;;;;51.22;21.42;;;0.00;99.90;;;;;;5030146;28;20058;-62
2022/01/19 00:56:11;;;;;;;52.88;20.33;;;0.00;99.90;;;;;;5029383;28;20049;-66
2022/01/19 00:58:38;;;;;;;45.00;18.13;;;0.00;99.90;;;;;;5029465;28;20060;-62
2022/01/19 01:01:07;;;;;;;48.25;20.33;;;0.00;99.90;;;;;;5026484;28;20046;-64
2022/01/19 01:03:35;;;;;;;62.72;19.73;;;0.00;99.90;;;;;;5017085;28;20076;-62
2022/01/19 01:06:02;;;;;;;48.75;20.15;;;0.00;99.90;;;;;;5030897;28;20053;-64
2022/01/19 01:08:30;;;;;;;47.08;19.83;;;0.00;99.90;;;;;;5030248;28;20061;-63
2022/01/19 01:10:58;;;;;;;51.60;22.10;;;0.10;99.90;;;;;;5029262;28;20566;-63
2022/01/19 01:15:24;;;;;;;51.80;21.08;;;0.10;99.90;;;;;;5029842;28;20050;-62
2022/01/19 01:16:30;;;;;;;49.35;18.92;;;0.10;99.90;;;;;;5022913;28;20397;-64
2022/01/19 01:19:00;;;;;;;45.55;18.85;;;0.20;99.90;;;;;;5022532;28;20052;-64
2022/01/19 01:21:28;;;;;;;44.28;18.05;;;0.30;99.90;;;;;;5029143;28;20120;-64
2022/01/19 01:23:56;;;;;;;58.30;20.05;;;0.50;99.90;;;;;;5028284;28;20037;-62
2022/01/19 01:26:24;;;;;;;38.15;15.32;;;0.60;99.90;;;;;;5028630;28;20046;-62
2022/01/19 01:28:52;;;;;;;43.80;15.40;;;0.60;99.90;;;;;;5028561;28;20038;-62
2022/01/19 01:31:20;;;;;;;45.72;14.93;;;0.80;99.90;;;;;;5023160;28;20041;-63
2022/01/19 01:33:48;;;;;;;46.38;18.33;;;0.90;99.90;;;;;;5018343;28;20485;-62
2022/01/19 01:36:15;;;;;;;45.78;16.75;;;0.90;99.90;;;;;;5012404;28;20048;-62
2022/01/19 01:38:44;;;;;;;39.28;14.93;;;1.00;99.90;;;;;;5028124;28;20048;-63
2022/01/19 01:41:14;;;;;;;48.65;17.38;;;1.00;99.90;;;;;;5028495;28;20393;-62
2022/01/19 01:44:08;;;;;;;40.72;17.25;;;1.00;99.90;;;;;;5028023;28;20060;-62
2022/01/19 01:46:53;;;;;;;57.95;21.92;;;1.00;99.90;;;;;;5021406;28;20037;-64
2022/01/19 01:54:54;;;;;;;44.00;20.08;;;1.00;99.90;;;;;;5029119;28;20045;-65
2022/01/19 01:57:22;;;;;;;51.65;20.05;;;1.00;99.90;;;;;;5028190;28;20064;-63
2022/01/19 01:59:50;;;;;;;59.65;20.80;;;1.10;99.90;;;;;;5024838;28;20049;-63
2022/01/19 02:02:25;;;;;;;45.85;19.15;;;1.10;99.90;;;;;;5008839;28;20050;-63
2022/01/19 02:04:53;;;;;;;47.90;17.25;;;1.10;99.90;;;;;;5025573;28;20051;-63
2022/01/19 02:07:32;;;;;;;48.28;18.63;;;1.10;99.90;;;;;;5027776;28;20045;-62
2022/01/19 02:10:06;;;;;;;40.92;16.48;;;1.10;99.90;;;;;;5027900;28;20049;-62
2022/01/19 02:23:48;;;;;;;38.85;15.35;;;1.40;99.90;;;;;;5027400;28;20046;-62
2022/01/19 02:26:28;;;;;;;46.97;17.48;;;1.50;99.90;;;;;;5011175;28;20057;-63
2022/01/19 02:29:22;;;;;;;43.70;16.30;;;1.60;99.90;;;;;;5027206;28;20045;-62
2022/01/19 02:36:35;;;;;;;43.42;18.38;;;1.60;99.90;;;;;;5020446;28;20100;-62
2022/01/19 02:40:19;;;;;;;39.67;15.75;;;1.80;99.90;;;;;;5031681;28;20056;-63
2022/01/19 02:43:06;;;;;;;43.78;17.38;;;1.80;99.90;;;;;;5014260;28;20048;-62
2022/01/19 02:51:12;;;;;;;41.50;13.15;;;1.90;99.90;;;;;;5014037;28;20494;-62
2022/01/19 02:53:40;;;;;;;35.75;13.25;;;1.80;99.90;;;;;;5030348;28;20401;-62
2022/01/19 02:56:15;;;;;;;36.85;13.02;;;1.80;99.90;;;;;;5031672;28;20489;-62
2022/01/19 02:58:51;;;;;;;37.05;13.15;;;1.80;99.90;;;;;;5030082;28;20401;-62
2022/01/19 03:09:29;;;;;;;38.08;13.27;;;1.90;99.90;;;;;;5030331;28;20505;-64
2022/01/19 03:11:56;;;;;;;31.45;11.68;;;2.00;99.90;;;;;;5030352;28;20385;-63
2022/01/19 03:14:24;;;;;;;28.80;11.27;;;2.00;99.90;;;;;;5030154;28;20056;-62
2022/01/19 03:16:52;;;;;;;28.27;10.88;;;1.90;99.90;;;;;;5031349;28;20052;-63
2022/01/19 03:19:21;;;;;;;26.77;12.13;;;2.00;99.90;;;;;;5030325;28;20045;-62
2022/01/19 03:21:48;;;;;;;26.60;11.77;;;2.00;99.90;;;;;;5030178;28;20045;-62
2022/01/19 03:24:16;;;;;;;25.13;11.32;;;2.00;99.90;;;;;;5030220;28;20048;-63
2022/01/19 03:26:44;;;;;;;26.10;11.73;;;2.00;99.90;;;;;;5030231;28;20056;-63
2022/01/19 03:29:17;;;;;;;23.25;10.20;;;1.90;99.90;;;;;;5030270;28;20045;-62
2022/01/19 03:31:45;;;;;;;26.27;11.57;;;1.90;99.90;;;;;;5031389;28;20500;-62
2022/01/19 03:34:12;;;;;;;30.13;11.82;;;1.90;99.90;;;;;;5031131;28;20042;-65
2022/01/19 03:36:42;;;;;;;;;;;1.80;99.90;;;;;;5030638;28;20068;-63
2022/01/19 03:39:12;;;;;;;;;;;1.90;99.90;;;;;;5030488;28;19921;-62
2022/01/19 03:41:39;;;;;;;27.33;10.80;;;1.90;99.90;;;;;;5033635;28;19928;-62
2022/01/19 03:44:09;;;;;;;35.88;11.02;;;1.90;99.90;;;;;;5033377;28;20068;-62
2022/01/19 03:46:46;;;;;;;29.73;10.90;;;1.90;99.90;;;;;;5017397;28;20053;-61
2022/01/19 03:49:23;;;;;;;28.83;13.55;;;1.90;99.90;;;;;;5033998;28;20038;-62
2022/01/19 03:51:58;;;;;;;40.25;12.18;;;1.90;99.90;;;;;;5033818;28;20046;-63
2022/01/19 03:54:30;;;;;;;28.10;12.00;;;1.90;99.90;;;;;;5017136;28;20056;-62
2022/01/19 03:56:58;;;;;;;33.13;11.75;;;1.80;99.90;;;;;;5034985;28;20045;-62
2022/01/19 03:59:26;;;;;;;26.77;10.73;;;1.80;99.90;;;;;;5033736;28;20049;-62
2022/01/19 04:01:55;;;;;;;21.83;10.40;;;1.70;99.90;;;;;;5033588;28;20046;-63
2022/01/19 04:07:16;;;;;;;32.70;11.15;;;1.70;99.90;;;;;;5033517;28;20045;-62
2022/01/19 04:09:46;;;;;;;32.83;11.45;;;1.70;99.90;;;;;;5033511;28;20045;-62
2022/01/19 04:12:30;;;;;;;35.08;12.25;;;1.80;99.90;;;;;;5033445;28;20068;-62
2022/01/19 04:14:57;;;;;;;34.25;12.27;;;1.80;99.90;;;;;;5033235;28;20053;-62
2022/01/19 04:17:25;;;;;;;36.00;12.43;;;1.90;99.90;;;;;;5033330;28;20401;-62
2022/01/19 04:19:53;;;;;;;34.95;12.30;;;2.00;99.90;;;;;;5033224;28;20052;-62
2022/01/19 04:22:26;;;;;;;31.52;13.20;;;2.00;99.90;;;;;;5033133;28;20041;-63
2022/01/19 04:25:02;;;;;;;33.72;12.15;;;2.00;99.90;;;;;;5033048;28;20045;-62
2022/01/19 04:30:08;;;;;;;34.55;13.27;;;2.10;99.90;;;;;;5033042;28;20046;-63
2022/01/19 04:35:34;;;;;;;39.78;13.10;;;2.20;99.90;;;;;;5016571;28;20060;-63
2022/01/19 04:54:06;;;;;;;27.85;11.18;;;2.40;99.90;;;;;;5033982;28;20041;-63
2022/01/19 05:06:08;;;;;;;21.88;9.38;;;4.00;99.90;;;;;;5032211;28;20052;-64
2022/01/19 05:13:52;;;;;;;15.90;7.15;;;4.60;99.90;;;;;;5032257;28;20050;-63
2022/01/19 05:16:25;;;;;;;28.63;8.23;;;4.80;99.90;;;;;;5032041;28;20037;-63
2022/01/19 05:18:53;;;;;;;16.08;7.30;;;4.90;99.90;;;;;;5015870;28;20103;-63
2022/01/19 05:21:22;;;;;;;16.25;6.75;;;5.00;99.90;;;;;;5032094;28;20052;-63
2022/01/19 05:24:07;;;;;;;13.82;6.60;;;5.10;99.90;;;;;;5033169;28;20397;-62
2022/01/19 05:26:37;;;;;;;14.95;7.07;;;5.20;99.90;;;;;;5031964;28;20060;-63
2022/01/19 05:29:09;;;;;;;22.00;7.35;;;5.20;99.90;;;;;;5031859;28;20053;-63
2022/01/19 05:31:37;;;;;;;18.85;6.80;;;5.20;99.90;;;;;;5031971;28;20042;-63
2022/01/19 05:34:04;;;;;;;18.63;7.15;;;5.30;99.90;;;;;;5031853;28;20041;-62
2022/01/19 05:36:39;;;;;;;19.63;7.22;;;5.30;99.90;;;;;;5031757;28;20041;-62
2022/01/19 05:39:27;;;;;;;18.88;6.57;;;5.30;99.90;;;;;;5031485;28;20141;-63
2022/01/19 05:42:15;;;;;;;16.65;6.70;;;5.40;99.90;;;;;;5031731;28;20037;-66
2022/01/19 05:44:45;;;;;;;13.97;5.87;;;5.40;99.90;;;;;;5031562;28;20057;-63
2022/01/19 05:47:18;;;;;;;15.68;6.05;;;5.40;99.90;;;;;;5011202;28;20629;-63
2022/01/19 05:49:46;;;;;;;12.10;5.95;;;5.50;99.90;;;;;;5008220;28;20417;-62
2022/01/19 05:52:16;;;;;;;13.30;7.00;;;5.50;99.90;;;;;;5024920;28;20421;-63
2022/01/19 05:54:45;;;;;;;20.67;6.93;;;5.40;99.90;;;;;;5024923;28;20038;-63
2022/01/19 05:57:13;;;;;;;18.17;6.78;;;5.40;99.90;;;;;;5027006;28;20682;-64
2022/01/19 05:59:47;;;;;;;14.35;7.25;;;5.40;99.90;;;;;;5011522;28;20045;-63
2022/01/19 06:02:16;;;;;;;16.23;6.32;;;5.40;99.90;;;;;;5018323;28;20398;-62
2022/01/19 06:04:44;;;;;;;14.30;6.20;;;5.40;99.90;;;;;;5037987;28;20120;-63
2022/01/19 06:07:43;;;;;;;17.92;6.18;;;5.40;99.90;;;;;;5026577;28;20049;-62
2022/01/19 06:10:44;;;;;;;13.80;6.70;;;5.40;99.90;;;;;;5027854;28;20037;-67
2022/01/19 06:13:14;;;;;;;14.63;6.32;;;5.30;99.90;;;;;;5027629;28;20046;-63
2022/01/19 06:15:43;;;;;;;14.95;6.57;;;5.30;99.90;;;;;;5010338;28;20049;-62
2022/01/19 06:18:12;;;;;;;14.15;6.57;;;5.30;99.90;;;;;;5020593;28;20060;-63
2022/01/19 06:20:41;;;;;;;17.75;6.35;;;5.40;99.90;;;;;;5005020;28;20064;-63
2022/01/19 06:23:09;;;;;;;13.68;6.05;;;5.30;99.90;;;;;;5019175;28;20053;-61
2022/01/19 06:25:45;;;;;;;17.38;7.22;;;5.30;99.90;;;;;;5027670;28;20053;-62
2022/01/19 06:28:13;;;;;;;13.60;7.25;;;5.30;99.90;;;;;;4994579;28;20049;-62
2022/01/19 06:30:41;;;;;;;14.55;7.85;;;5.30;99.90;;;;;;5011365;28;20056;-62
2022/01/19 06:33:09;;;;;;;20.08;7.70;;;5.30;99.90;;;;;;5020712;28;20371;-62
2022/01/19 06:35:40;;;;;;;16.58;6.95;;;5.20;99.90;;;;;;5007755;28;20042;-62
2022/01/19 06:38:16;;;;;;;19.10;7.65;;;5.20;99.90;;;;;;5017941;28;20056;-62
2022/01/19 06:40:53;;;;;;;20.35;7.28;;;5.20;99.90;;;;;;5027747;28;20049;-63
2022/01/19 06:43:21;;;;;;;18.33;7.60;;;5.20;99.90;;;;;;5010567;28;20054;-63
2022/01/19 06:45:49;;;;;;;16.27;7.32;;;5.10;99.90;;;;;;5026077;28;20054;-62
2022/01/19 06:48:17;;;;;;;16.08;7.32;;;5.10;99.90;;;;;;5016458;28;20054;-62
2022/01/19 06:50:45;;;;;;;14.95;6.85;;;5.10;99.90;;;;;;5004846;28;20046;-61
2022/01/19 06:53:20;;;;;;;17.23;8.65;;;5.10;99.90;;;;;;5019748;28;20042;-63
2022/01/19 06:56:02;;;;;;;18.33;8.65;;;5.10;99.90;;;;;;5027419;28;20406;-62
2022/01/19 06:58:30;;;;;;;21.30;7.63;;;5.10;99.90;;;;;;5027040;28;20048;-63
2022/01/19 07:01:16;;;;;;;15.70;7.75;;;5.20;99.90;;;;;;5025593;28;20053;-62
2022/01/19 07:04:00;;;;;;;20.52;8.13;;;5.10;99.90;;;;;;5011626;28;20046;-63
2022/01/19 07:06:30;;;;;;;22.00;8.52;;;5.10;99.90;;;;;;5005081;28;20046;-62
2022/01/19 07:09:36;;;;;;;21.23;8.93;;;5.10;99.90;;;;;;5025810;28;20690;-62
2022/01/19 07:12:04;;;;;;;20.38;10.00;;;5.10;99.90;;;;;;5007175;28;20045;-61
2022/01/19 07:14:35;;;;;;;15.27;7.68;;;5.10;99.90;;;;;;4997052;28;20054;-61
2022/01/19 07:17:03;;;;;;;26.88;8.27;;;5.10;99.90;;;;;;5010778;28;20046;-62
2022/01/19 07:19:32;;;;;;;18.15;8.40;;;5.10;99.90;;;;;;5015177;28;20041;-62
2022/01/19 07:22:00;;;;;;;25.77;8.35;;;5.10;99.90;;;;;;5012950;28;20050;-62
2022/01/19 07:24:27;;;;;;;22.00;8.48;;;5.10;99.90;;;;;;5032037;28;20045;-62
2022/01/19 07:26:55;;;;;;;20.63;8.45;;;5.10;99.90;;;;;;5030876;28;20049;-62
2022/01/19 07:29:25;;;;;;;15.70;8.38;;;5.10;99.90;;;;;;5029960;28;20064;-62
2022/01/19 07:31:57;;;;;;;22.10;6.50;;;5.20;99.90;;;;;;5011044;28;20060;-62
2022/01/19 07:34:26;;;;;;;23.55;7.07;;;5.20;99.90;;;;;;5012910;28;20060;-64
2022/01/19 07:36:55;;;;;;;11.87;5.57;;;5.30;99.90;;;;;;5007614;28;20050;-62
2022/01/19 07:39:24;;;;;;;11.70;5.90;;;5.40;99.90;;;;;;5027007;28;20046;-61
2022/01/19 07:41:55;;;;;;;9.82;5.13;;;5.50;99.90;;;;;;5028536;28;20053;-61
2022/01/19 07:44:41;;;;;;;12.05;4.30;;;5.70;99.90;;;;;;5030338;28;20061;-62
2022/01/19 07:47:35;;;;;;;13.07;6.18;;;5.80;99.90;;;;;;5022816;28;20089;-62
2022/01/19 07:50:18;;;;;;;10.85;4.53;;;6.00;99.90;;;;;;5010928;28;20042;-62
2022/01/19 07:53:04;;;;;;;12.30;4.47;;;6.10;99.90;;;;;;5022058;28;20052;-64
2022/01/19 07:55:58;;;;;;;11.10;5.20;;;6.20;99.90;;;;;;5029109;28;20144;-62
2022/01/19 07:58:47;;;;;;;7.57;3.47;;;6.30;99.90;;;;;;5030933;28;20061;-63
2022/01/19 08:01:19;;;;;;;11.35;5.32;;;6.30;99.90;;;;;;5031434;28;20045;-62
2022/01/19 08:03:50;;;;;;;14.32;5.25;;;6.40;99.90;;;;;;5021496;28;20049;-67
2022/01/19 08:06:22;;;;;;;13.38;5.50;;;6.40;99.90;;;;;;5013866;28;20045;-61
2022/01/19 08:08:53;;;;;;;14.40;4.10;;;6.40;99.90;;;;;;5013002;28;20515;-63
2022/01/19 08:11:21;;;;;;;13.40;5.25;;;6.40;99.90;;;;;;5029599;28;20050;-64
2022/01/19 08:13:56;;;;;;;9.52;4.93;;;6.40;99.90;;;;;;5027039;28;20046;-63
2022/01/19 08:16:23;;;;;;;11.02;4.90;;;6.40;99.90;;;;;;5031184;28;20465;-63
2022/01/19 08:18:52;;;;;;;10.40;5.05;;;6.40;99.90;;;;;;5025017;28;20050;-62
2022/01/19 08:21:21;;;;;;;9.27;4.53;;;6.40;99.90;;;;;;5008806;28;20129;-65
2022/01/19 08:23:58;;;;;;;11.40;4.90;;;6.40;99.90;;;;;;5026008;28;20072;-63
2022/01/19 08:26:26;;;;;;;11.35;5.28;;;6.50;99.90;;;;;;5011409;28;20256;-65
2022/01/19 08:28:56;;;;;;;16.13;5.68;;;6.40;99.90;;;;;;5027902;28;20374;-63
2022/01/19 08:31:24;;;;;;;10.18;4.72;;;6.50;99.90;;;;;;5027199;28;20045;-62
2022/01/19 08:34:24;;;;;;;11.40;5.38;;;6.50;99.90;;;;;;5005764;28;20054;-63
2022/01/19 08:37:21;;;;;;;14.75;4.47;;;6.50;99.90;;;;;;4993316;28;20066;-63
2022/01/19 08:39:57;;;;;;;14.07;5.50;;;6.50;99.90;;;;;;5029231;28;20405;-67
2022/01/19 08:42:25;;;;;;;9.70;4.32;;;6.50;99.90;;;;;;5029109;28;20052;-63
2022/01/19 08:44:54;;;;;;;12.65;4.63;;;6.50;99.90;;;;;;5029305;28;20432;-64
2022/01/19 08:47:25;;;;;;;18.98;5.35;;;6.50;99.90;;;;;;5029047;28;20057;-63
2022/01/19 08:50:14;;;;;;;18.80;5.85;;;6.50;99.90;;;;;;5013848;28;20049;-62
2022/01/19 08:53:01;;;;;;;11.10;4.83;;;6.50;99.90;;;;;;5020101;28;20060;-62
2022/01/19 08:55:37;;;;;;;9.95;3.58;;;6.50;99.90;;;;;;5029473;28;20046;-62
2022/01/19 08:58:07;;;;;;;10.35;4.00;;;6.50;99.90;;;;;;5030068;28;20057;-62
2022/01/19 09:00:35;;;;;;;11.13;3.28;;;6.60;99.90;;;;;;5030567;28;20042;-63
2022/01/19 09:03:03;;;;;;;7.13;2.72;;;6.70;99.90;;;;;;5027650;28;20049;-63
2022/01/19 09:05:31;;;;;;;9.50;3.55;;;6.80;99.90;;;;;;5009621;28;20045;-63
2022/01/19 09:08:00;;;;;;;5.80;2.97;;;6.90;99.90;;;;;;5015212;28;20468;-63
2022/01/19 09:10:28;;;;;;;8.40;2.92;;;7.00;99.90;;;;;;5026985;28;20061;-63
2022/01/19 09:12:58;;;;;;;17.90;3.60;;;7.00;99.90;;;;;;5029277;28;20045;-64
2022/01/19 09:15:27;;;;;;;8.57;3.90;;;7.10;99.90;;;;;;5030014;28;20038;-64
2022/01/19 09:17:54;;;;;;;8.70;4.22;;;7.10;99.90;;;;;;5029619;28;20045;-62
2022/01/19 09:20:22;;;;;;;6.80;2.55;;;7.20;99.90;;;;;;5013404;28;20046;-62
2022/01/19 09:22:50;;;;;;;9.07;4.30;;;7.20;99.90;;;;;;5018016;28;20049;-61
2022/01/19 09:25:18;;;;;;;15.40;6.90;;;7.20;99.90;;;;;;5029990;28;20606;-62
2022/01/19 09:27:46;;;;;;;14.93;6.18;;;7.20;99.90;;;;;;5029774;28;20049;-62
2022/01/19 09:30:18;;;;;;;21.35;6.28;;;7.20;99.90;;;;;;5029947;28;20041;-62
2022/01/19 09:32:54;;;;;;;12.93;5.00;;;7.20;99.90;;;;;;5029738;28;20575;-63
2022/01/19 09:35:25;;;;;;;19.02;5.65;;;7.20;99.90;;;;;;5015306;28;20049;-63
2022/01/19 09:37:53;;;;;;;27.48;12.68;;;7.20;99.90;;;;;;5015948;28;20132;-63
2022/01/19 09:40:29;;;;;;;16.83;3.83;;;7.20;99.90;;;;;;5029504;28;20045;-63
2022/01/19 09:43:07;;;;;;;9.05;1.10;;;7.20;99.90;;;;;;5029367;28;20140;-63
2022/01/19 09:45:35;;;;;;;11.82;1.92;;;7.20;99.90;;;;;;5028228;28;20413;-64
2022/01/19 09:48:05;;;;;;;11.68;2.20;;;7.20;99.90;;;;;;5028103;28;20053;-63
2022/01/19 09:50:33;;;;;;;12.30;2.28;;;7.20;99.90;;;;;;5027970;28;20053;-65
2022/01/19 09:53:05;;;;;;;18.98;3.90;;;7.10;99.90;;;;;;5029223;28;20547;-64
2022/01/19 09:55:35;;;;;;;13.38;2.78;;;7.00;99.90;;;;;;5029489;28;20056;-64
2022/01/19 09:58:02;;;;;;;14.50;2.72;;;7.00;99.90;;;;;;5025204;28;20049;-64
2022/01/19 10:00:30;;;;;;;28.27;2.38;;;7.00;99.90;;;;;;5009705;28;20133;-62
2022/01/19 10:03:17;;;;;;;18.33;2.75;;;7.00;99.90;;;;;;5018136;28;20049;-63
2022/01/19 10:06:22;;;;;;;15.02;2.25;;;7.10;99.90;;;;;;5028518;28;20049;-65
2022/01/19 10:08:55;;;;;;;24.15;4.20;;;7.10;99.90;;;;;;5028457;28;20068;-64
2022/01/19 10:16:59;;;;;;;12.15;1.92;;;7.10;99.90;;;;;;5044029;28;20049;-65
2022/01/19 10:19:33;;;;;;;15.65;1.50;;;7.10;99.90;;;;;;5028467;28;20045;-65
2022/01/19 10:22:03;;;;;;;16.67;1.95;;;7.10;99.90;;;;;;5027044;28;20046;-66
2022/01/19 10:24:46;;;;;;;;;;;7.10;99.90;;;;;;5028164;28;20049;-63
2022/01/19 10:27:25;;;;;;;13.70;2.53;;;7.00;99.90;;;;;;5027902;28;20316;-64
2022/01/19 10:30:02;;;;;;;15.30;2.13;;;7.00;99.90;;;;;;5011440;28;20041;-63
2022/01/19 10:32:30;;;;;;;15.52;2.78;;;7.00;99.90;;;;;;5055068;28;20046;-66
2022/01/19 10:35:24;;;;;;;18.50;1.67;;;7.00;99.90;;;;;;5027051;28;20065;-67
2022/01/19 10:38:12;;;;;;;12.63;1.42;;;7.00;99.90;;;;;;5026967;28;20042;-65
2022/01/19 10:41:02;;;;;;;21.15;3.55;;;7.00;99.90;;;;;;5028756;28;20405;-63
2022/01/19 10:43:41;;;;;;;9.07;1.65;;;7.10;99.90;;;;;;5024208;28;20061;-62
2022/01/19 10:46:33;;;;;;;15.55;2.60;;;7.20;99.90;;;;;;5026991;28;20548;-62
2022/01/19 10:49:07;;;;;;;11.60;2.10;;;7.30;99.90;;;;;;5026533;28;20052;-62
2022/01/19 10:51:39;;;;;;;17.23;1.98;;;7.30;99.90;;;;;;5028375;28;20516;-64
2022/01/19 10:54:10;;;;;;;11.45;1.25;;;7.30;99.90;;;;;;5026202;28;20053;-61
2022/01/19 10:56:39;;;;;;;13.95;2.15;;;7.30;99.90;;;;;;5028573;28;20477;-61
2022/01/19 10:59:10;;;;;;;13.20;1.85;;;7.40;99.90;;;;;;5027449;28;20041;-62
2022/01/19 11:01:42;;;;;;;19.00;1.80;;;7.50;99.90;;;;;;5027107;28;20060;-62
2022/01/19 11:04:33;;;;;;;13.10;1.90;;;7.70;99.90;;;;;;5026303;28;20045;-62
2022/01/19 11:07:07;;;;;;;14.13;1.45;;;7.80;99.90;;;;;;5028099;28;20045;-62
2022/01/19 11:09:45;;;;;;;22.90;4.80;;;7.80;99.90;;;;;;5009860;28;20045;-62
2022/01/19 11:12:17;;;;;;;14.93;2.17;;;7.90;99.90;;;;;;5027403;28;20052;-61
2022/01/19 11:14:46;;;;;;;16.17;1.90;;;7.90;99.90;;;;;;5024339;28;20418;-62
2022/01/19 11:17:34;;;;;;;15.25;2.42;;;7.90;99.90;;;;;;5021840;28;20045;-63
2022/01/19 11:20:07;;;;;;;14.82;2.13;;;7.90;99.90;;;;;;5027850;28;20050;-62
2022/01/19 11:23:04;;;;;;;8.52;1.88;;;8.00;99.90;;;;;;5027420;28;20507;-62
2022/01/19 11:25:45;;;;;;;12.30;2.63;;;8.10;99.90;;;;;;5025260;28;20137;-62
2022/01/19 11:28:35;;;;;;;7.78;2.05;;;8.20;99.90;;;;;;5024238;28;20360;-62
2022/01/19 11:31:13;;;;;;;17.15;2.22;;;8.30;99.90;;;;;;5024238;28;20050;-62
2022/01/19 11:33:56;;;;;;;22.00;2.58;;;8.30;99.90;;;;;;5023153;28;20052;-62
2022/01/19 11:36:35;;;;;;;12.05;1.83;;;8.30;99.90;;;;;;5025232;28;20041;-62
2022/01/19 11:39:23;;;;;;;21.75;2.45;;;8.30;99.90;;;;;;5024055;28;20049;-62
2022/01/19 11:41:56;;;;;;;20.48;1.25;;;8.30;99.90;;;;;;5026150;28;20054;-61
2022/01/19 11:44:33;;;;;;;17.40;2.33;;;8.30;99.90;;;;;;5024608;28;20382;-61
2022/01/19 11:47:09;;;;;;;8.07;1.40;;;8.40;99.90;;;;;;5026205;28;20060;-62
2022/01/19 11:49:44;;;;;;;6.78;1.40;;;8.40;99.90;;;;;;5026413;28;20049;-62
2022/01/19 11:52:15;;;;;;;12.68;1.20;;;8.50;99.90;;;;;;5026615;28;20068;-63
2022/01/19 11:54:44;;;;;;;18.25;1.92;;;8.70;99.90;;;;;;5027751;28;20041;-63
2022/01/19 11:57:27;;;;;;;9.50;1.30;;;8.90;99.90;;;;;;5023269;28;20541;-61
2022/01/19 12:00:09;;;;;;;14.27;1.85;;;9.10;99.90;;;;;;5026809;28;20514;-61
2022/01/19 12:02:46;;;;;;;13.57;1.85;;;9.40;99.90;;;;;;5027260;28;20046;-61
2022/01/19 12:05:40;;;;;;;17.65;1.90;;;9.60;99.90;;;;;;5025821;28;20045;-61
2022/01/19 12:08:54;;;;;;;12.40;1.58;;;9.70;99.90;;;;;;5030949;28;20389;-63
2022/01/19 12:11:23;;;;;;;16.88;2.03;;;9.70;99.90;;;;;;4990623;28;20428;-61
2022/01/19 12:14:10;;;;;;;16.77;2.40;;;9.60;99.90;;;;;;5021546;28;20519;-61
2022/01/19 12:19:10;;;;;;;11.32;1.73;;;9.40;99.90;;;;;;5030645;28;20049;-62
2022/01/19 12:21:45;;;;;;;13.55;1.45;;;9.20;99.90;;;;;;5029884;28;20064;-64
2022/01/19 12:24:36;;;;;;;11.60;1.80;;;9.00;99.90;;;;;;5030584;28;20057;-61
2022/01/19 12:27:14;;;;;;;13.05;1.55;;;8.80;99.90;;;;;;5029653;28;20045;-62
2022/01/19 12:29:50;;;;;;;11.07;1.80;;;8.80;99.90;;;;;;5023545;28;20049;-61
2022/01/19 12:32:21;;;;;;;3.47;1.13;;;8.80;99.90;;;;;;5024311;28;20053;-62
2022/01/19 12:34:56;;;;;;;9.02;2.03;;;8.80;99.90;;;;;;5029291;28;20060;-62
2022/01/19 12:37:27;;;;;;;10.98;1.25;;;8.70;99.90;;;;;;5029198;28;20049;-62
2022/01/19 12:39:55;;;;;;;13.82;2.00;;;8.90;99.90;;;;;;5021160;28;20424;-62
2022/01/19 12:42:29;;;;;;;13.32;1.42;;;9.10;99.90;;;;;;5030420;28;20041;-63
2022/01/19 12:45:02;;;;;;;15.68;1.63;;;9.20;99.90;;;;;;5020749;28;20046;-61
2022/01/19 12:47:30;;;;;;;11.63;1.25;;;9.30;99.90;;;;;;5024143;28;20386;-61
2022/01/19 12:50:20;;;;;;;14.05;2.08;;;9.40;99.90;;;;;;5030159;28;20061;-60
2022/01/19 12:52:54;;;;;;;7.68;1.20;;;9.40;99.90;;;;;;5017210;28;20041;-61
2022/01/19 12:55:25;;;;;;;13.05;2.30;;;9.40;99.90;;;;;;5029679;28;20062;-62
2022/01/19 12:57:54;;;;;;;13.75;2.58;;;9.50;99.90;;;;;;5030046;28;20045;-64
2022/01/19 13:00:29;;;;;;;13.38;2.00;;;9.70;99.90;;;;;;5019141;28;20057;-69
2022/01/19 13:02:57;;;;;;;14.70;1.70;;;9.80;99.90;;;;;;5028737;28;20137;-64
2022/01/19 13:05:30;;;;;;;9.77;1.30;;;10.00;99.90;;;;;;5026267;28;20045;-69
2022/01/19 13:08:02;;;;;;;10.23;1.75;;;10.40;99.90;;;;;;5029344;28;20048;-65
2022/01/19 13:15:54;;;;;;;9.75;1.10;;;10.80;99.70;;;;;;5018365;28;20050;-66
2022/01/19 13:18:43;;;;;;;14.73;2.30;;;10.60;99.90;;;;;;5019891;28;20366;-66
2022/01/19 13:21:19;;;;;;;13.25;2.03;;;10.30;99.90;;;;;;5029621;28;20048;-61
2022/01/19 13:23:57;;;;;;;11.40;1.52;;;10.10;99.90;;;;;;5029511;28;20045;-67
2022/01/19 13:26:38;;;;;;;20.38;2.67;;;9.90;99.90;;;;;;5028532;28;20382;-64
2022/01/19 13:29:39;;;;;;;9.07;1.27;;;9.90;99.90;;;;;;5029171;28;20049;-62
2022/01/19 13:32:15;;;;;;;12.77;1.60;;;9.80;99.90;;;;;;5010112;28;20054;-62
2022/01/19 13:35:01;;;;;;;15.88;1.60;;;9.60;99.90;;;;;;5029753;28;20527;-61
2022/01/19 13:37:37;;;;;;;11.63;1.50;;;9.40;99.90;;;;;;5028271;28;20509;-61
2022/01/19 13:40:10;;;;;;;15.63;2.05;;;9.10;99.90;;;;;;5029281;28;20566;-61
2022/01/19 13:42:51;;;;;;;18.95;2.47;;;9.00;99.90;;;;;;5029295;28;20374;-62
2022/01/19 13:45:31;;;;;;;10.82;1.73;;;8.90;99.90;;;;;;5020714;28;20062;-61
2022/01/19 13:50:44;;;;;;;11.07;3.17;;;9.20;99.90;;;;;;5029075;28;20049;-61
2022/01/19 13:53:13;;;;;;;20.55;2.63;;;9.30;99.90;;;;;;5029139;28;20046;-61
2022/01/19 13:55:41;;;;;;;13.00;2.33;;;9.20;99.90;;;;;;5028854;28;20424;-61
2022/01/19 13:58:12;;;;;;;12.00;2.28;;;9.10;99.90;;;;;;5029280;28;20049;-61
2022/01/19 14:01:02;;;;;;;13.68;2.15;;;8.90;99.90;;;;;;5020257;28;20053;-61
2022/01/19 14:03:50;;;;;;;11.07;2.03;;;8.70;99.90;;;;;;5020988;28;20436;-61
2022/01/19 14:06:24;;;;;;;9.60;0.95;;;8.70;99.90;;;;;;5025827;28;20053;-61
2022/01/19 14:09:15;;;;;;;12.30;1.23;;;8.70;99.90;;;;;;5024185;28;20060;-61
2022/01/19 14:12:08;;;;;;;12.30;1.60;;;8.50;99.90;;;;;;5027853;28;20053;-61
2022/01/19 14:14:39;;;;;;;8.23;1.20;;;8.40;99.90;;;;;;5028649;28;20053;-61
2022/01/19 14:17:09;;;;;;;8.20;1.50;;;8.20;99.90;;;;;;5009130;28;20061;-61
2022/01/19 14:19:46;;;;;;;12.43;1.90;;;8.10;99.90;;;;;;5028565;28;20521;-62
2022/01/19 14:22:19;;;;;;;15.43;1.83;;;8.10;99.90;;;;;;5027446;28;20052;-61
2022/01/19 14:24:53;;;;;;;11.68;2.03;;;8.00;99.90;;;;;;5028728;28;20482;-61
2022/01/19 14:27:47;;;;;;;15.30;2.00;;;8.00;99.90;;;;;;5028698;28;20037;-62
2022/01/19 14:30:28;;;;;;;8.38;1.25;;;8.00;99.90;;;;;;5024367;28;20544;-61
2022/01/19 14:33:14;;;;;;;11.43;1.40;;;8.00;99.90;;;;;;5015989;28;20041;-61
2022/01/19 14:35:42;;;;;;;10.55;1.52;;;8.10;99.90;;;;;;5028263;28;20049;-61
2022/01/19 14:38:16;;;;;;;9.77;1.35;;;8.10;99.90;;;;;;5028622;28;20054;-61
2022/01/19 14:40:50;;;;;;;14.10;1.90;;;8.20;99.90;;;;;;5028080;28;20041;-61
2022/01/19 14:43:22;;;;;;;13.52;2.00;;;8.20;99.90;;;;;;5027910;28;20496;-62
2022/01/19 14:46:00;;;;;;;15.88;1.50;;;8.30;99.90;;;;;;5020007;28;20054;-61
2022/01/19 14:48:35;;;;;;;12.55;1.52;;;8.40;99.90;;;;;;5018584;28;20049;-62
2022/01/19 14:51:42;;;;;;;15.40;2.63;;;8.30;99.90;;;;;;5028551;28;20061;-61
2022/01/19 14:54:12;;;;;;;14.25;1.45;;;8.10;99.90;;;;;;4986009;28;20054;-61